sensor_id;sensor_type;location;lat;lon;timestamp;P1;durP1;ratioP1;P2;durP2;ratioP2
12906;SDS011;6521;50.498;8.474;2022-09-17T00:00:19;6.37;;;4.10;;
12906;SDS011;6521;50.498;8.474;2022-09-17T00:02:51;6.90;;;4.30;;
12906;SDS011;6521;50.498;8.474;2022-09-17T00:05:25;9.80;;;4.03;;
12906;SDS011;6521;50.498;8.474;2022-09-17T00:07:55;11.77;;;5.33;;
12906;SDS011;6521;50.498;8.474;2022-09-17T00:10:26;10.10;;;4.57;;
12906;SDS011;6521;50.498;8.474;2022-09-17T00:12:57;11.97;;;5.27;;
12906;SDS011;6521;50.498;8.474;2022-09-17T00:15:29;12.17;;;5.50;;
12906;SDS011;6521;50.498;8.474;2022-09-17T00:18:00;12.73;;;5.60;;
12906;SDS011;6521;50.498;8.474;2022-09-17T00:20:31;13.43;;;5.57;;
12906;SDS011;6521;50.498;8.474;2022-09-17T00:23:01;12.97;;;5.53;;
12906;SDS011;6521;50.498;8.474;2022-09-17T00:25:32;11.00;;;5.57;;
12906;SDS011;6521;50.498;8.474;2022-09-17T00:28:02;10.37;;;6.10;;
12906;SDS011;6521;50.498;8.474;2022-09-17T00:30:33;17.63;;;6.40;;
12906;SDS011;6521;50.498;8.474;2022-09-17T00:33:04;11.03;;;6.27;;
12906;SDS011;6521;50.498;8.474;2022-09-17T00:35:35;15.77;;;6.33;;
12906;SDS011;6521;50.498;8.474;2022-09-17T00:38:05;11.33;;;6.27;;
12906;SDS011;6521;50.498;8.474;2022-09-17T00:40:37;11.53;;;6.70;;
12906;SDS011;6521;50.498;8.474;2022-09-17T00:43:11;15.87;;;7.10;;
12906;SDS011;6521;50.498;8.474;2022-09-17T00:45:41;11.23;;;6.20;;
12906;SDS011;6521;50.498;8.474;2022-09-17T00:48:12;14.23;;;6.97;;
12906;SDS011;6521;50.498;8.474;2022-09-17T00:50:51;11.93;;;7.23;;
12906;SDS011;6521;50.498;8.474;2022-09-17T00:53:23;15.27;;;7.17;;
12906;SDS011;6521;50.498;8.474;2022-09-17T00:55:56;13.17;;;6.60;;
12906;SDS011;6521;50.498;8.474;2022-09-17T00:58:31;12.67;;;6.83;;
12906;SDS011;6521;50.498;8.474;2022-09-17T01:01:05;8.57;;;6.30;;
12906;SDS011;6521;50.498;8.474;2022-09-17T01:03:36;11.23;;;6.30;;
12906;SDS011;6521;50.498;8.474;2022-09-17T01:15:13;14.17;;;7.50;;
12906;SDS011;6521;50.498;8.474;2022-09-17T01:20:39;11.50;;;7.20;;
12906;SDS011;6521;50.498;8.474;2022-09-17T01:32:11;11.40;;;8.03;;
12906;SDS011;6521;50.498;8.474;2022-09-17T01:37:30;10.93;;;8.70;;
12906;SDS011;6521;50.498;8.474;2022-09-17T01:40:11;12.70;;;8.23;;
12906;SDS011;6521;50.498;8.474;2022-09-17T01:45:51;8.03;;;7.33;;
12906;SDS011;6521;50.498;8.474;2022-09-17T01:48:30;11.47;;;8.03;;
12906;SDS011;6521;50.498;8.474;2022-09-17T01:53:51;10.47;;;7.47;;
12906;SDS011;6521;50.498;8.474;2022-09-17T01:56:28;12.00;;;7.73;;
12906;SDS011;6521;50.498;8.474;2022-09-17T02:01:42;9.83;;;8.27;;
12906;SDS011;6521;50.498;8.474;2022-09-17T02:04:18;14.37;;;8.40;;
12906;SDS011;6521;50.498;8.474;2022-09-17T02:06:58;10.83;;;8.63;;
12906;SDS011;6521;50.498;8.474;2022-09-17T02:09:35;13.23;;;8.07;;
12906;SDS011;6521;50.498;8.474;2022-09-17T02:12:14;11.07;;;7.90;;
12906;SDS011;6521;50.498;8.474;2022-09-17T02:14:51;9.20;;;8.10;;
12906;SDS011;6521;50.498;8.474;2022-09-17T02:20:01;11.70;;;7.70;;
12906;SDS011;6521;50.498;8.474;2022-09-17T02:22:36;9.20;;;7.90;;
12906;SDS011;6521;50.498;8.474;2022-09-17T02:25:14;10.10;;;8.10;;
12906;SDS011;6521;50.498;8.474;2022-09-17T02:28:03;8.57;;;7.43;;
12906;SDS011;6521;50.498;8.474;2022-09-17T02:30:41;12.00;;;7.97;;
12906;SDS011;6521;50.498;8.474;2022-09-17T02:33:12;9.67;;;7.50;;
12906;SDS011;6521;50.498;8.474;2022-09-17T02:35:45;9.70;;;7.17;;
12906;SDS011;6521;50.498;8.474;2022-09-17T02:38:25;13.37;;;7.80;;
12906;SDS011;6521;50.498;8.474;2022-09-17T02:41:07;12.57;;;8.30;;
12906;SDS011;6521;50.498;8.474;2022-09-17T02:46:58;9.03;;;8.13;;
12906;SDS011;6521;50.498;8.474;2022-09-17T03:00:40;10.73;;;9.40;;
12906;SDS011;6521;50.498;8.474;2022-09-17T03:03:11;17.57;;;9.70;;
12906;SDS011;6521;50.498;8.474;2022-09-17T03:06:05;12.57;;;9.77;;
12906;SDS011;6521;50.498;8.474;2022-09-17T03:08:37;11.57;;;10.33;;
12906;SDS011;6521;50.498;8.474;2022-09-17T03:11:10;14.87;;;10.67;;
12906;SDS011;6521;50.498;8.474;2022-09-17T03:13:42;12.20;;;10.23;;
12906;SDS011;6521;50.498;8.474;2022-09-17T03:16:12;12.83;;;10.40;;
12906;SDS011;6521;50.498;8.474;2022-09-17T03:18:44;13.57;;;10.17;;
12906;SDS011;6521;50.498;8.474;2022-09-17T03:21:14;15.30;;;11.37;;
12906;SDS011;6521;50.498;8.474;2022-09-17T03:23:45;12.80;;;10.20;;
12906;SDS011;6521;50.498;8.474;2022-09-17T03:26:16;13.57;;;10.70;;
12906;SDS011;6521;50.498;8.474;2022-09-17T03:28:46;12.80;;;11.23;;
12906;SDS011;6521;50.498;8.474;2022-09-17T03:31:17;13.10;;;10.17;;
12906;SDS011;6521;50.498;8.474;2022-09-17T03:33:48;10.37;;;9.17;;
12906;SDS011;6521;50.498;8.474;2022-09-17T03:36:19;15.97;;;9.67;;
12906;SDS011;6521;50.498;8.474;2022-09-17T03:38:56;13.87;;;9.83;;
12906;SDS011;6521;50.498;8.474;2022-09-17T03:41:28;14.67;;;10.10;;
12906;SDS011;6521;50.498;8.474;2022-09-17T03:43:58;10.43;;;9.10;;
12906;SDS011;6521;50.498;8.474;2022-09-17T03:46:29;17.47;;;9.10;;
12906;SDS011;6521;50.498;8.474;2022-09-17T03:49:00;9.53;;;8.37;;
12906;SDS011;6521;50.498;8.474;2022-09-17T03:51:31;10.23;;;8.60;;
12906;SDS011;6521;50.498;8.474;2022-09-17T03:54:01;13.50;;;8.80;;
12906;SDS011;6521;50.498;8.474;2022-09-17T03:56:33;11.60;;;8.90;;
12906;SDS011;6521;50.498;8.474;2022-09-17T03:59:03;10.50;;;8.80;;
12906;SDS011;6521;50.498;8.474;2022-09-17T04:01:34;15.27;;;8.23;;
12906;SDS011;6521;50.498;8.474;2022-09-17T04:04:05;11.10;;;8.10;;
12906;SDS011;6521;50.498;8.474;2022-09-17T04:06:37;11.03;;;7.83;;
12906;SDS011;6521;50.498;8.474;2022-09-17T04:09:07;10.63;;;8.20;;
12906;SDS011;6521;50.498;8.474;2022-09-17T04:11:38;14.73;;;8.90;;
12906;SDS011;6521;50.498;8.474;2022-09-17T04:14:08;15.97;;;8.73;;
12906;SDS011;6521;50.498;8.474;2022-09-17T04:16:39;8.57;;;7.67;;
12906;SDS011;6521;50.498;8.474;2022-09-17T04:19:10;14.20;;;8.77;;
12906;SDS011;6521;50.498;8.474;2022-09-17T04:21:40;13.23;;;9.17;;
12906;SDS011;6521;50.498;8.474;2022-09-17T04:24:11;11.80;;;8.03;;
12906;SDS011;6521;50.498;8.474;2022-09-17T04:26:42;12.73;;;9.53;;
12906;SDS011;6521;50.498;8.474;2022-09-17T04:29:12;11.20;;;7.17;;
12906;SDS011;6521;50.498;8.474;2022-09-17T04:31:43;10.57;;;8.27;;
12906;SDS011;6521;50.498;8.474;2022-09-17T04:34:13;8.50;;;7.63;;
12906;SDS011;6521;50.498;8.474;2022-09-17T04:36:44;11.20;;;7.77;;
12906;SDS011;6521;50.498;8.474;2022-09-17T04:39:15;13.27;;;7.70;;
12906;SDS011;6521;50.498;8.474;2022-09-17T04:41:46;13.23;;;7.53;;
12906;SDS011;6521;50.498;8.474;2022-09-17T04:44:17;11.47;;;8.10;;
12906;SDS011;6521;50.498;8.474;2022-09-17T04:46:48;10.67;;;7.67;;
12906;SDS011;6521;50.498;8.474;2022-09-17T04:49:18;12.60;;;7.10;;
12906;SDS011;6521;50.498;8.474;2022-09-17T04:51:49;13.03;;;7.67;;
12906;SDS011;6521;50.498;8.474;2022-09-17T04:54:19;9.43;;;7.27;;
12906;SDS011;6521;50.498;8.474;2022-09-17T04:56:51;12.00;;;7.00;;
12906;SDS011;6521;50.498;8.474;2022-09-17T04:59:22;11.43;;;7.23;;
12906;SDS011;6521;50.498;8.474;2022-09-17T05:01:53;12.33;;;6.50;;
12906;SDS011;6521;50.498;8.474;2022-09-17T05:04:24;9.77;;;6.63;;
12906;SDS011;6521;50.498;8.474;2022-09-17T05:06:56;13.07;;;6.53;;
12906;SDS011;6521;50.498;8.474;2022-09-17T05:09:26;15.50;;;6.87;;
12906;SDS011;6521;50.498;8.474;2022-09-17T05:11:57;10.23;;;6.43;;
12906;SDS011;6521;50.498;8.474;2022-09-17T05:14:28;13.83;;;5.87;;
12906;SDS011;6521;50.498;8.474;2022-09-17T05:16:58;14.97;;;5.63;;
12906;SDS011;6521;50.498;8.474;2022-09-17T05:19:29;9.77;;;5.43;;
12906;SDS011;6521;50.498;8.474;2022-09-17T05:22:00;10.03;;;5.70;;
12906;SDS011;6521;50.498;8.474;2022-09-17T05:24:31;10.53;;;5.10;;
12906;SDS011;6521;50.498;8.474;2022-09-17T05:27:02;8.67;;;5.57;;
12906;SDS011;6521;50.498;8.474;2022-09-17T05:29:33;13.53;;;5.93;;
12906;SDS011;6521;50.498;8.474;2022-09-17T05:32:04;16.40;;;6.20;;
12906;SDS011;6521;50.498;8.474;2022-09-17T05:34:34;12.93;;;6.53;;
12906;SDS011;6521;50.498;8.474;2022-09-17T05:37:05;12.27;;;6.13;;
12906;SDS011;6521;50.498;8.474;2022-09-17T05:39:39;12.63;;;7.03;;
12906;SDS011;6521;50.498;8.474;2022-09-17T05:42:09;11.83;;;6.17;;
12906;SDS011;6521;50.498;8.474;2022-09-17T05:44:40;16.80;;;6.73;;
12906;SDS011;6521;50.498;8.474;2022-09-17T05:47:11;11.37;;;6.13;;
12906;SDS011;6521;50.498;8.474;2022-09-17T05:49:41;10.20;;;6.70;;
12906;SDS011;6521;50.498;8.474;2022-09-17T05:52:12;12.50;;;6.47;;
12906;SDS011;6521;50.498;8.474;2022-09-17T05:54:43;11.77;;;6.50;;
12906;SDS011;6521;50.498;8.474;2022-09-17T05:57:14;14.80;;;6.37;;
12906;SDS011;6521;50.498;8.474;2022-09-17T05:59:46;13.53;;;6.20;;
12906;SDS011;6521;50.498;8.474;2022-09-17T06:02:17;12.63;;;7.07;;
12906;SDS011;6521;50.498;8.474;2022-09-17T06:04:48;12.17;;;6.67;;
12906;SDS011;6521;50.498;8.474;2022-09-17T06:07:19;10.90;;;6.33;;
12906;SDS011;6521;50.498;8.474;2022-09-17T06:09:50;12.17;;;6.13;;
12906;SDS011;6521;50.498;8.474;2022-09-17T06:12:21;12.77;;;7.20;;
12906;SDS011;6521;50.498;8.474;2022-09-17T06:14:51;12.80;;;7.00;;
12906;SDS011;6521;50.498;8.474;2022-09-17T06:17:22;19.63;;;6.87;;
12906;SDS011;6521;50.498;8.474;2022-09-17T06:19:53;13.43;;;6.77;;
12906;SDS011;6521;50.498;8.474;2022-09-17T06:22:24;15.07;;;7.03;;
12906;SDS011;6521;50.498;8.474;2022-09-17T06:24:54;8.00;;;5.90;;
12906;SDS011;6521;50.498;8.474;2022-09-17T06:27:31;12.07;;;7.40;;
12906;SDS011;6521;50.498;8.474;2022-09-17T06:30:03;16.17;;;6.77;;
12906;SDS011;6521;50.498;8.474;2022-09-17T06:32:35;15.80;;;7.13;;
12906;SDS011;6521;50.498;8.474;2022-09-17T06:35:06;17.90;;;6.83;;
12906;SDS011;6521;50.498;8.474;2022-09-17T06:37:37;18.10;;;7.40;;
12906;SDS011;6521;50.498;8.474;2022-09-17T06:40:10;18.00;;;8.93;;
12906;SDS011;6521;50.498;8.474;2022-09-17T06:42:40;20.83;;;8.17;;
12906;SDS011;6521;50.498;8.474;2022-09-17T06:45:11;12.47;;;8.10;;
12906;SDS011;6521;50.498;8.474;2022-09-17T06:47:42;12.77;;;7.43;;
12906;SDS011;6521;50.498;8.474;2022-09-17T06:50:13;15.37;;;7.63;;
12906;SDS011;6521;50.498;8.474;2022-09-17T06:52:47;14.73;;;7.23;;
12906;SDS011;6521;50.498;8.474;2022-09-17T06:55:21;14.10;;;6.90;;
12906;SDS011;6521;50.498;8.474;2022-09-17T06:57:51;19.50;;;6.63;;
12906;SDS011;6521;50.498;8.474;2022-09-17T07:00:22;14.60;;;6.27;;
12906;SDS011;6521;50.498;8.474;2022-09-17T07:02:56;14.83;;;6.33;;
12906;SDS011;6521;50.498;8.474;2022-09-17T07:05:28;12.73;;;5.60;;
12906;SDS011;6521;50.498;8.474;2022-09-17T07:08:02;18.70;;;6.57;;
12906;SDS011;6521;50.498;8.474;2022-09-17T07:10:33;13.10;;;6.20;;
12906;SDS011;6521;50.498;8.474;2022-09-17T07:13:04;21.57;;;6.63;;
12906;SDS011;6521;50.498;8.474;2022-09-17T07:15:34;21.33;;;6.13;;
12906;SDS011;6521;50.498;8.474;2022-09-17T07:18:09;13.77;;;5.50;;
12906;SDS011;6521;50.498;8.474;2022-09-17T07:20:40;15.00;;;5.80;;
12906;SDS011;6521;50.498;8.474;2022-09-17T07:23:11;17.93;;;6.37;;
12906;SDS011;6521;50.498;8.474;2022-09-17T07:25:41;17.03;;;5.97;;
12906;SDS011;6521;50.498;8.474;2022-09-17T07:28:12;14.40;;;6.10;;
12906;SDS011;6521;50.498;8.474;2022-09-17T07:30:43;16.67;;;6.30;;
12906;SDS011;6521;50.498;8.474;2022-09-17T07:33:14;20.73;;;6.00;;
12906;SDS011;6521;50.498;8.474;2022-09-17T07:35:59;16.60;;;6.37;;
12906;SDS011;6521;50.498;8.474;2022-09-17T07:38:32;16.00;;;6.30;;
12906;SDS011;6521;50.498;8.474;2022-09-17T07:41:05;14.03;;;7.73;;
12906;SDS011;6521;50.498;8.474;2022-09-17T07:43:39;17.37;;;5.37;;
12906;SDS011;6521;50.498;8.474;2022-09-17T07:46:14;19.27;;;5.70;;
12906;SDS011;6521;50.498;8.474;2022-09-17T07:48:47;11.30;;;6.37;;
12906;SDS011;6521;50.498;8.474;2022-09-17T07:51:19;13.40;;;5.60;;
12906;SDS011;6521;50.498;8.474;2022-09-17T07:53:51;12.17;;;5.60;;
12906;SDS011;6521;50.498;8.474;2022-09-17T07:56:23;10.80;;;5.77;;
12906;SDS011;6521;50.498;8.474;2022-09-17T07:58:55;9.83;;;5.57;;
12906;SDS011;6521;50.498;8.474;2022-09-17T08:01:25;8.60;;;4.60;;
12906;SDS011;6521;50.498;8.474;2022-09-17T08:03:57;11.30;;;5.57;;
12906;SDS011;6521;50.498;8.474;2022-09-17T08:06:28;12.07;;;4.53;;
12906;SDS011;6521;50.498;8.474;2022-09-17T08:08:59;10.50;;;4.13;;
12906;SDS011;6521;50.498;8.474;2022-09-17T08:11:32;8.37;;;4.20;;
12906;SDS011;6521;50.498;8.474;2022-09-17T08:14:03;9.43;;;3.90;;
12906;SDS011;6521;50.498;8.474;2022-09-17T08:16:33;9.47;;;4.50;;
12906;SDS011;6521;50.498;8.474;2022-09-17T08:19:04;11.27;;;4.00;;
12906;SDS011;6521;50.498;8.474;2022-09-17T08:21:35;6.40;;;3.50;;
12906;SDS011;6521;50.498;8.474;2022-09-17T08:24:05;9.67;;;4.53;;
12906;SDS011;6521;50.498;8.474;2022-09-17T08:26:36;7.80;;;3.60;;
12906;SDS011;6521;50.498;8.474;2022-09-17T08:29:08;14.27;;;3.50;;
12906;SDS011;6521;50.498;8.474;2022-09-17T08:31:40;14.30;;;2.90;;
12906;SDS011;6521;50.498;8.474;2022-09-17T08:34:11;6.90;;;2.57;;
12906;SDS011;6521;50.498;8.474;2022-09-17T08:36:42;9.60;;;2.63;;
12906;SDS011;6521;50.498;8.474;2022-09-17T08:39:13;8.03;;;3.23;;
12906;SDS011;6521;50.498;8.474;2022-09-17T08:42:19;8.53;;;2.70;;
12906;SDS011;6521;50.498;8.474;2022-09-17T08:44:42;6.77;;;3.13;;
12906;SDS011;6521;50.498;8.474;2022-09-17T08:47:29;6.57;;;3.03;;
12906;SDS011;6521;50.498;8.474;2022-09-17T08:50:27;6.33;;;3.00;;
12906;SDS011;6521;50.498;8.474;2022-09-17T08:56:05;10.57;;;2.90;;
12906;SDS011;6521;50.498;8.474;2022-09-17T09:07:30;6.13;;;2.92;;
12906;SDS011;6521;50.498;8.474;2022-09-17T09:10:29;12.00;;;3.63;;
12906;SDS011;6521;50.498;8.474;2022-09-17T09:13:04;8.53;;;2.80;;
12906;SDS011;6521;50.498;8.474;2022-09-17T09:20:51;9.70;;;3.17;;
12906;SDS011;6521;50.498;8.474;2022-09-17T09:26:18;7.73;;;2.73;;
12906;SDS011;6521;50.498;8.474;2022-09-17T09:29:06;8.13;;;3.60;;
12906;SDS011;6521;50.498;8.474;2022-09-17T09:31:57;10.17;;;2.23;;
12906;SDS011;6521;50.498;8.474;2022-09-17T09:34:39;7.97;;;2.73;;
12906;SDS011;6521;50.498;8.474;2022-09-17T09:37:16;8.80;;;2.77;;
12906;SDS011;6521;50.498;8.474;2022-09-17T09:39:52;12.77;;;2.87;;
12906;SDS011;6521;50.498;8.474;2022-09-17T09:42:34;8.97;;;2.20;;
12906;SDS011;6521;50.498;8.474;2022-09-17T09:45:13;8.03;;;2.53;;
12906;SDS011;6521;50.498;8.474;2022-09-17T09:56:40;10.07;;;2.83;;
12906;SDS011;6521;50.498;8.474;2022-09-17T09:59:22;5.40;;;2.30;;
12906;SDS011;6521;50.498;8.474;2022-09-17T10:01:53;6.07;;;2.00;;
12906;SDS011;6521;50.498;8.474;2022-09-17T10:04:25;8.17;;;2.07;;
12906;SDS011;6521;50.498;8.474;2022-09-17T10:07:07;3.42;;;1.88;;
12906;SDS011;6521;50.498;8.474;2022-09-17T10:09:44;7.82;;;2.28;;
12906;SDS011;6521;50.498;8.474;2022-09-17T10:12:16;5.72;;;1.83;;
12906;SDS011;6521;50.498;8.474;2022-09-17T10:14:47;11.77;;;2.22;;
12906;SDS011;6521;50.498;8.474;2022-09-17T10:17:25;6.05;;;2.13;;
12906;SDS011;6521;50.498;8.474;2022-09-17T10:22:30;10.68;;;1.77;;
12906;SDS011;6521;50.498;8.474;2022-09-17T10:25:05;4.10;;;2.03;;
12906;SDS011;6521;50.498;8.474;2022-09-17T10:27:47;7.70;;;1.90;;
12906;SDS011;6521;50.498;8.474;2022-09-17T10:30:18;8.63;;;1.70;;
12906;SDS011;6521;50.498;8.474;2022-09-17T10:36:03;5.78;;;2.10;;
12906;SDS011;6521;50.498;8.474;2022-09-17T10:38:44;2.38;;;1.55;;
12906;SDS011;6521;50.498;8.474;2022-09-17T10:41:16;4.93;;;1.67;;
12906;SDS011;6521;50.498;8.474;2022-09-17T10:43:48;6.28;;;2.30;;
12906;SDS011;6521;50.498;8.474;2022-09-17T10:46:20;8.70;;;1.88;;
12906;SDS011;6521;50.498;8.474;2022-09-17T10:48:57;15.07;;;1.98;;
12906;SDS011;6521;50.498;8.474;2022-09-17T10:51:44;3.15;;;1.42;;
12906;SDS011;6521;50.498;8.474;2022-09-17T10:56:56;5.63;;;1.40;;
12906;SDS011;6521;50.498;8.474;2022-09-17T11:17:00;6.25;;;1.20;;
12906;SDS011;6521;50.498;8.474;2022-09-17T11:22:38;4.65;;;1.20;;
12906;SDS011;6521;50.498;8.474;2022-09-17T11:25:29;8.65;;;1.42;;
12906;SDS011;6521;50.498;8.474;2022-09-17T11:37:04;5.95;;;1.40;;
12906;SDS011;6521;50.498;8.474;2022-09-17T11:40:03;6.97;;;1.42;;
12906;SDS011;6521;50.498;8.474;2022-09-17T11:43:01;3.95;;;1.75;;
12906;SDS011;6521;50.498;8.474;2022-09-17T11:45:38;7.93;;;1.60;;
12906;SDS011;6521;50.498;8.474;2022-09-17T11:48:32;5.22;;;2.00;;
12906;SDS011;6521;50.498;8.474;2022-09-17T11:51:17;7.38;;;1.50;;
12906;SDS011;6521;50.498;8.474;2022-09-17T11:59:50;7.05;;;1.10;;
12906;SDS011;6521;50.498;8.474;2022-09-17T12:05:27;2.90;;;0.88;;
12906;SDS011;6521;50.498;8.474;2022-09-17T12:10:59;2.80;;;0.98;;
12906;SDS011;6521;50.498;8.474;2022-09-17T12:13:51;4.47;;;1.27;;
12906;SDS011;6521;50.498;8.474;2022-09-17T12:16:33;10.80;;;1.38;;
12906;SDS011;6521;50.498;8.474;2022-09-17T12:19:11;4.32;;;0.95;;
12906;SDS011;6521;50.498;8.474;2022-09-17T12:22:03;3.95;;;1.30;;
12906;SDS011;6521;50.498;8.474;2022-09-17T12:24:40;5.18;;;1.50;;
12906;SDS011;6521;50.498;8.474;2022-09-17T12:27:14;4.72;;;1.50;;
12906;SDS011;6521;50.498;8.474;2022-09-17T12:30:12;7.47;;;1.33;;
12906;SDS011;6521;50.498;8.474;2022-09-17T12:41:26;2.63;;;1.05;;
12906;SDS011;6521;50.498;8.474;2022-09-17T12:56:33;4.57;;;1.48;;
12906;SDS011;6521;50.498;8.474;2022-09-17T12:59:31;6.20;;;1.70;;
12906;SDS011;6521;50.498;8.474;2022-09-17T13:02:17;7.95;;;1.48;;
12906;SDS011;6521;50.498;8.474;2022-09-17T13:16:41;4.95;;;1.40;;
12906;SDS011;6521;50.498;8.474;2022-09-17T13:22:16;5.28;;;1.50;;
12906;SDS011;6521;50.498;8.474;2022-09-17T13:25:06;7.88;;;1.60;;
12906;SDS011;6521;50.498;8.474;2022-09-17T13:27:44;2.78;;;1.25;;
12906;SDS011;6521;50.498;8.474;2022-09-17T13:30:19;3.58;;;1.20;;
12906;SDS011;6521;50.498;8.474;2022-09-17T13:32:52;4.40;;;2.10;;
12906;SDS011;6521;50.498;8.474;2022-09-17T13:37:55;2.70;;;1.20;;
12906;SDS011;6521;50.498;8.474;2022-09-17T13:40:28;3.60;;;0.90;;
12906;SDS011;6521;50.498;8.474;2022-09-17T13:46:23;3.43;;;1.10;;
12906;SDS011;6521;50.498;8.474;2022-09-17T13:48:30;11.25;;;2.72;;
12906;SDS011;6521;50.498;8.474;2022-09-17T13:54:14;1.37;;;0.70;;
12906;SDS011;6521;50.498;8.474;2022-09-17T13:56:48;6.93;;;1.20;;
12906;SDS011;6521;50.498;8.474;2022-09-17T13:59:32;5.20;;;1.10;;
12906;SDS011;6521;50.498;8.474;2022-09-17T14:04:46;3.00;;;1.23;;
12906;SDS011;6521;50.498;8.474;2022-09-17T14:09:56;2.87;;;1.10;;
12906;SDS011;6521;50.498;8.474;2022-09-17T14:15:33;4.97;;;1.30;;
12906;SDS011;6521;50.498;8.474;2022-09-17T14:21:05;3.10;;;1.27;;
12906;SDS011;6521;50.498;8.474;2022-09-17T14:23:44;2.17;;;0.90;;
12906;SDS011;6521;50.498;8.474;2022-09-17T14:26:18;2.57;;;1.00;;
12906;SDS011;6521;50.498;8.474;2022-09-17T14:29:19;2.07;;;0.90;;
12906;SDS011;6521;50.498;8.474;2022-09-17T14:32:02;0.80;;;0.70;;
12906;SDS011;6521;50.498;8.474;2022-09-17T14:34:36;1.27;;;0.80;;
12906;SDS011;6521;50.498;8.474;2022-09-17T14:37:11;4.80;;;2.03;;
12906;SDS011;6521;50.498;8.474;2022-09-17T14:39:44;2.50;;;1.17;;
12906;SDS011;6521;50.498;8.474;2022-09-17T14:42:17;2.93;;;1.30;;
12906;SDS011;6521;50.498;8.474;2022-09-17T14:44:59;1.47;;;1.10;;
12906;SDS011;6521;50.498;8.474;2022-09-17T14:47:31;2.00;;;0.77;;
12906;SDS011;6521;50.498;8.474;2022-09-17T14:50:21;2.77;;;1.20;;
12906;SDS011;6521;50.498;8.474;2022-09-17T14:52:53;2.03;;;0.93;;
12906;SDS011;6521;50.498;8.474;2022-09-17T14:55:27;1.53;;;0.97;;
12906;SDS011;6521;50.498;8.474;2022-09-17T14:58:01;1.85;;;1.35;;
12906;SDS011;6521;50.498;8.474;2022-09-17T15:00:34;1.80;;;1.10;;
12906;SDS011;6521;50.498;8.474;2022-09-17T15:03:18;2.97;;;1.30;;
12906;SDS011;6521;50.498;8.474;2022-09-17T15:05:51;7.03;;;1.10;;
12906;SDS011;6521;50.498;8.474;2022-09-17T15:08:22;1.63;;;1.20;;
12906;SDS011;6521;50.498;8.474;2022-09-17T15:10:56;2.17;;;1.30;;
12906;SDS011;6521;50.498;8.474;2022-09-17T15:13:35;2.20;;;0.93;;
12906;SDS011;6521;50.498;8.474;2022-09-17T15:18:59;2.00;;;1.00;;
12906;SDS011;6521;50.498;8.474;2022-09-17T15:21:43;4.80;;;1.00;;
12906;SDS011;6521;50.498;8.474;2022-09-17T15:24:18;2.63;;;1.00;;
12906;SDS011;6521;50.498;8.474;2022-09-17T15:26:54;5.03;;;1.00;;
12906;SDS011;6521;50.498;8.474;2022-09-17T15:29:28;1.63;;;1.17;;
12906;SDS011;6521;50.498;8.474;2022-09-17T15:32:02;1.27;;;0.70;;
12906;SDS011;6521;50.498;8.474;2022-09-17T15:34:35;3.00;;;1.10;;
12906;SDS011;6521;50.498;8.474;2022-09-17T15:37:13;1.33;;;0.77;;
12906;SDS011;6521;50.498;8.474;2022-09-17T15:39:51;1.37;;;0.80;;
12906;SDS011;6521;50.498;8.474;2022-09-17T15:42:28;2.60;;;1.40;;
12906;SDS011;6521;50.498;8.474;2022-09-17T15:45:14;1.67;;;0.90;;
12906;SDS011;6521;50.498;8.474;2022-09-17T15:47:50;1.63;;;1.30;;
12906;SDS011;6521;50.498;8.474;2022-09-17T15:50:27;1.87;;;1.50;;
12906;SDS011;6521;50.498;8.474;2022-09-17T15:55:42;2.73;;;1.13;;
12906;SDS011;6521;50.498;8.474;2022-09-17T15:58:18;2.33;;;1.13;;
12906;SDS011;6521;50.498;8.474;2022-09-17T16:08:55;1.20;;;0.90;;
12906;SDS011;6521;50.498;8.474;2022-09-17T16:11:31;1.20;;;1.10;;
12906;SDS011;6521;50.498;8.474;2022-09-17T16:14:02;4.50;;;1.10;;
12906;SDS011;6521;50.498;8.474;2022-09-17T16:16:34;4.43;;;1.03;;
12906;SDS011;6521;50.498;8.474;2022-09-17T16:19:06;2.10;;;1.30;;
12906;SDS011;6521;50.498;8.474;2022-09-17T16:21:38;4.03;;;0.90;;
12906;SDS011;6521;50.498;8.474;2022-09-17T16:24:09;3.70;;;1.07;;
12906;SDS011;6521;50.498;8.474;2022-09-17T16:26:40;2.83;;;0.93;;
12906;SDS011;6521;50.498;8.474;2022-09-17T16:29:12;5.57;;;1.20;;
12906;SDS011;6521;50.498;8.474;2022-09-17T16:31:45;1.43;;;0.70;;
12906;SDS011;6521;50.498;8.474;2022-09-17T16:34:17;2.50;;;1.00;;
12906;SDS011;6521;50.498;8.474;2022-09-17T16:36:49;3.07;;;0.90;;
12906;SDS011;6521;50.498;8.474;2022-09-17T16:39:22;1.57;;;0.97;;
12906;SDS011;6521;50.498;8.474;2022-09-17T16:41:52;1.63;;;0.80;;
12906;SDS011;6521;50.498;8.474;2022-09-17T16:44:23;1.63;;;0.93;;
12906;SDS011;6521;50.498;8.474;2022-09-17T16:46:54;3.07;;;1.00;;
12906;SDS011;6521;50.498;8.474;2022-09-17T16:49:24;1.63;;;0.93;;
12906;SDS011;6521;50.498;8.474;2022-09-17T16:51:55;1.43;;;1.33;;
12906;SDS011;6521;50.498;8.474;2022-09-17T16:54:26;4.40;;;0.90;;
12906;SDS011;6521;50.498;8.474;2022-09-17T16:56:57;2.10;;;1.30;;
12906;SDS011;6521;50.498;8.474;2022-09-17T16:59:27;3.90;;;1.73;;
12906;SDS011;6521;50.498;8.474;2022-09-17T17:01:58;3.47;;;1.10;;
12906;SDS011;6521;50.498;8.474;2022-09-17T17:04:29;2.27;;;1.27;;
12906;SDS011;6521;50.498;8.474;2022-09-17T17:07:00;2.27;;;1.20;;
12906;SDS011;6521;50.498;8.474;2022-09-17T17:09:31;3.53;;;1.37;;
12906;SDS011;6521;50.498;8.474;2022-09-17T17:12:01;3.70;;;1.63;;
12906;SDS011;6521;50.498;8.474;2022-09-17T17:14:33;5.17;;;1.90;;
12906;SDS011;6521;50.498;8.474;2022-09-17T17:17:04;4.43;;;1.90;;
12906;SDS011;6521;50.498;8.474;2022-09-17T17:19:34;4.63;;;1.43;;
12906;SDS011;6521;50.498;8.474;2022-09-17T17:22:06;3.87;;;1.53;;
12906;SDS011;6521;50.498;8.474;2022-09-17T17:24:37;3.33;;;1.33;;
12906;SDS011;6521;50.498;8.474;2022-09-17T17:27:08;5.83;;;1.50;;
12906;SDS011;6521;50.498;8.474;2022-09-17T17:29:41;2.30;;;1.57;;
12906;SDS011;6521;50.498;8.474;2022-09-17T17:32:11;3.10;;;1.47;;
12906;SDS011;6521;50.498;8.474;2022-09-17T17:34:42;4.50;;;1.37;;
12906;SDS011;6521;50.498;8.474;2022-09-17T17:37:13;3.07;;;1.43;;
12906;SDS011;6521;50.498;8.474;2022-09-17T17:39:44;3.40;;;1.23;;
12906;SDS011;6521;50.498;8.474;2022-09-17T17:42:14;4.03;;;1.50;;
12906;SDS011;6521;50.498;8.474;2022-09-17T17:44:45;5.70;;;1.50;;
12906;SDS011;6521;50.498;8.474;2022-09-17T17:47:17;4.77;;;1.17;;
12906;SDS011;6521;50.498;8.474;2022-09-17T17:49:47;4.43;;;1.30;;
12906;SDS011;6521;50.498;8.474;2022-09-17T17:52:18;3.47;;;1.27;;
12906;SDS011;6521;50.498;8.474;2022-09-17T17:54:49;5.23;;;1.70;;
12906;SDS011;6521;50.498;8.474;2022-09-17T17:57:20;3.63;;;2.03;;
12906;SDS011;6521;50.498;8.474;2022-09-17T17:59:50;3.83;;;1.87;;
12906;SDS011;6521;50.498;8.474;2022-09-17T18:02:21;4.33;;;1.50;;
12906;SDS011;6521;50.498;8.474;2022-09-17T18:04:52;2.53;;;1.03;;
12906;SDS011;6521;50.498;8.474;2022-09-17T18:07:23;3.70;;;1.23;;
12906;SDS011;6521;50.498;8.474;2022-09-17T18:09:53;7.03;;;1.30;;
12906;SDS011;6521;50.498;8.474;2022-09-17T18:12:24;5.23;;;1.70;;
12906;SDS011;6521;50.498;8.474;2022-09-17T18:14:55;1.47;;;1.00;;
12906;SDS011;6521;50.498;8.474;2022-09-17T18:17:27;3.00;;;1.70;;
12906;SDS011;6521;50.498;8.474;2022-09-17T18:19:58;3.07;;;1.60;;
12906;SDS011;6521;50.498;8.474;2022-09-17T18:22:28;2.93;;;1.27;;
12906;SDS011;6521;50.498;8.474;2022-09-17T18:24:59;3.73;;;1.60;;
12906;SDS011;6521;50.498;8.474;2022-09-17T18:27:30;4.73;;;1.50;;
12906;SDS011;6521;50.498;8.474;2022-09-17T18:30:01;3.23;;;1.30;;
12906;SDS011;6521;50.498;8.474;2022-09-17T18:32:31;4.57;;;1.30;;
12906;SDS011;6521;50.498;8.474;2022-09-17T18:35:02;4.30;;;1.30;;
12906;SDS011;6521;50.498;8.474;2022-09-17T18:37:33;5.87;;;1.63;;
12906;SDS011;6521;50.498;8.474;2022-09-17T18:40:04;3.10;;;1.30;;
12906;SDS011;6521;50.498;8.474;2022-09-17T18:42:35;4.47;;;1.47;;
12906;SDS011;6521;50.498;8.474;2022-09-17T18:45:06;4.47;;;1.20;;
12906;SDS011;6521;50.498;8.474;2022-09-17T18:47:37;6.23;;;1.37;;
12906;SDS011;6521;50.498;8.474;2022-09-17T18:50:08;4.33;;;1.47;;
12906;SDS011;6521;50.498;8.474;2022-09-17T18:52:38;4.10;;;1.27;;